Terminal Aerodrome Forecast
Issued by NWS Buffalo, NY

Home | Current Version | Previous Version | Text Only | Print | Product List | Glossary On
Versions: 1 2 3 4 5 6 7 8 9 10 11 12 13 14 15 16 17 18 19 20 21 22 23 24 25 26 27
000
FTUS41 KBUF 150200 AAA
TAFART
TAF AMD
KART 150257Z 1503/1524 13003KT P6SM SKC
     FM150800 16004KT P6SM SCT050
     FM151200 17004KT P6SM BKN040
     FM151400 21006KT P6SM BKN100
     FM151900 22011KT P6SM SCT110
     FM152000 23011KT P6SM BKN110=

USA.gov is the U.S. government's official web portal to all federal, state and local government web resources and services.